sensor_id;sensor_type;location;lat;lon;timestamp;P1;durP1;ratioP1;P2;durP2;ratioP2
47796;SDS011;33558;50.922;14.068;2023-06-01T00:00:19;3.67;;;2.33;;
47796;SDS011;33558;50.922;14.068;2023-06-01T00:02:46;5.37;;;2.70;;
47796;SDS011;33558;50.922;14.068;2023-06-01T00:05:14;4.93;;;2.80;;
47796;SDS011;33558;50.922;14.068;2023-06-01T00:07:41;4.70;;;2.40;;
47796;SDS011;33558;50.922;14.068;2023-06-01T00:10:08;4.47;;;2.67;;
47796;SDS011;33558;50.922;14.068;2023-06-01T00:12:35;6.27;;;2.50;;
47796;SDS011;33558;50.922;14.068;2023-06-01T00:15:28;4.53;;;2.33;;
47796;SDS011;33558;50.922;14.068;2023-06-01T00:17:55;3.80;;;2.50;;
47796;SDS011;33558;50.922;14.068;2023-06-01T00:20:22;4.70;;;2.33;;
47796;SDS011;33558;50.922;14.068;2023-06-01T00:22:49;4.23;;;2.37;;
47796;SDS011;33558;50.922;14.068;2023-06-01T00:25:16;4.70;;;3.13;;
47796;SDS011;33558;50.922;14.068;2023-06-01T00:27:43;8.87;;;2.53;;
47796;SDS011;33558;50.922;14.068;2023-06-01T00:30:35;4.93;;;2.90;;
47796;SDS011;33558;50.922;14.068;2023-06-01T00:33:02;4.53;;;2.83;;
47796;SDS011;33558;50.922;14.068;2023-06-01T00:35:29;5.30;;;2.80;;
47796;SDS011;33558;50.922;14.068;2023-06-01T00:37:55;5.63;;;2.73;;
47796;SDS011;33558;50.922;14.068;2023-06-01T00:40:22;5.30;;;2.60;;
47796;SDS011;33558;50.922;14.068;2023-06-01T00:42:49;4.00;;;2.53;;
47796;SDS011;33558;50.922;14.068;2023-06-01T00:45:19;7.37;;;3.23;;
47796;SDS011;33558;50.922;14.068;2023-06-01T00:47:47;4.60;;;2.70;;
47796;SDS011;33558;50.922;14.068;2023-06-01T00:50:14;4.57;;;2.80;;
47796;SDS011;33558;50.922;14.068;2023-06-01T00:52:41;4.70;;;2.77;;
47796;SDS011;33558;50.922;14.068;2023-06-01T00:55:08;5.77;;;2.70;;
47796;SDS011;33558;50.922;14.068;2023-06-01T00:57:36;8.37;;;2.97;;
47796;SDS011;33558;50.922;14.068;2023-06-01T01:00:28;6.83;;;2.90;;
47796;SDS011;33558;50.922;14.068;2023-06-01T01:02:57;3.07;;;2.37;;
47796;SDS011;33558;50.922;14.068;2023-06-01T01:05:29;8.70;;;2.80;;
47796;SDS011;33558;50.922;14.068;2023-06-01T01:08:00;6.27;;;3.20;;
47796;SDS011;33558;50.922;14.068;2023-06-01T01:10:31;6.23;;;3.10;;
47796;SDS011;33558;50.922;14.068;2023-06-01T01:13:01;4.73;;;3.07;;
47796;SDS011;33558;50.922;14.068;2023-06-01T01:15:32;4.03;;;3.03;;
47796;SDS011;33558;50.922;14.068;2023-06-01T01:18:11;5.20;;;3.40;;
47796;SDS011;33558;50.922;14.068;2023-06-01T01:20:43;4.73;;;3.07;;
47796;SDS011;33558;50.922;14.068;2023-06-01T01:23:15;6.17;;;2.87;;
47796;SDS011;33558;50.922;14.068;2023-06-01T01:26:04;5.47;;;2.80;;
47796;SDS011;33558;50.922;14.068;2023-06-01T01:28:40;4.90;;;2.90;;
47796;SDS011;33558;50.922;14.068;2023-06-01T01:31:09;4.23;;;3.23;;
47796;SDS011;33558;50.922;14.068;2023-06-01T01:33:38;3.93;;;2.73;;
47796;SDS011;33558;50.922;14.068;2023-06-01T01:36:07;7.17;;;3.43;;
47796;SDS011;33558;50.922;14.068;2023-06-01T01:38:36;4.17;;;2.80;;
47796;SDS011;33558;50.922;14.068;2023-06-01T01:41:03;5.20;;;2.97;;
47796;SDS011;33558;50.922;14.068;2023-06-01T01:43:31;6.10;;;2.60;;
47796;SDS011;33558;50.922;14.068;2023-06-01T01:46:03;6.67;;;2.90;;
47796;SDS011;33558;50.922;14.068;2023-06-01T01:48:37;5.13;;;2.90;;
47796;SDS011;33558;50.922;14.068;2023-06-01T01:51:10;4.93;;;2.73;;
47796;SDS011;33558;50.922;14.068;2023-06-01T01:53:40;4.67;;;3.13;;
47796;SDS011;33558;50.922;14.068;2023-06-01T01:56:08;6.20;;;3.53;;
47796;SDS011;33558;50.922;14.068;2023-06-01T01:58:36;5.57;;;3.10;;
47796;SDS011;33558;50.922;14.068;2023-06-01T02:01:04;12.63;;;3.93;;
47796;SDS011;33558;50.922;14.068;2023-06-01T02:03:32;7.40;;;3.20;;
47796;SDS011;33558;50.922;14.068;2023-06-01T02:06:00;7.03;;;3.17;;
47796;SDS011;33558;50.922;14.068;2023-06-01T02:08:27;4.37;;;3.30;;
47796;SDS011;33558;50.922;14.068;2023-06-01T02:10:54;5.83;;;3.23;;
47796;SDS011;33558;50.922;14.068;2023-06-01T02:13:21;4.83;;;2.93;;
47796;SDS011;33558;50.922;14.068;2023-06-01T02:15:48;5.10;;;3.10;;
47796;SDS011;33558;50.922;14.068;2023-06-01T02:18:17;4.37;;;3.07;;
47796;SDS011;33558;50.922;14.068;2023-06-01T02:20:43;7.53;;;3.60;;
47796;SDS011;33558;50.922;14.068;2023-06-01T02:23:11;6.03;;;3.40;;
47796;SDS011;33558;50.922;14.068;2023-06-01T02:25:38;4.63;;;3.33;;
47796;SDS011;33558;50.922;14.068;2023-06-01T02:28:04;6.33;;;3.27;;
47796;SDS011;33558;50.922;14.068;2023-06-01T02:30:32;14.10;;;3.70;;
47796;SDS011;33558;50.922;14.068;2023-06-01T02:32:59;5.03;;;3.17;;
47796;SDS011;33558;50.922;14.068;2023-06-01T02:35:28;4.57;;;3.40;;
47796;SDS011;33558;50.922;14.068;2023-06-01T02:37:57;4.10;;;3.03;;
47796;SDS011;33558;50.922;14.068;2023-06-01T02:40:24;5.77;;;3.63;;
47796;SDS011;33558;50.922;14.068;2023-06-01T02:42:50;3.67;;;2.87;;
47796;SDS011;33558;50.922;14.068;2023-06-01T02:45:21;5.23;;;3.40;;
47796;SDS011;33558;50.922;14.068;2023-06-01T02:47:48;5.33;;;3.47;;
47796;SDS011;33558;50.922;14.068;2023-06-01T02:50:15;5.07;;;3.40;;
47796;SDS011;33558;50.922;14.068;2023-06-01T02:52:46;5.37;;;3.00;;
47796;SDS011;33558;50.922;14.068;2023-06-01T02:55:13;5.20;;;3.27;;
47796;SDS011;33558;50.922;14.068;2023-06-01T02:58:12;5.07;;;3.00;;
47796;SDS011;33558;50.922;14.068;2023-06-01T03:00:52;4.80;;;3.03;;
47796;SDS011;33558;50.922;14.068;2023-06-01T03:03:20;5.80;;;2.90;;
47796;SDS011;33558;50.922;14.068;2023-06-01T03:05:48;5.57;;;3.97;;
47796;SDS011;33558;50.922;14.068;2023-06-01T03:08:38;6.07;;;2.93;;
47796;SDS011;33558;50.922;14.068;2023-06-01T03:11:11;4.63;;;3.50;;
47796;SDS011;33558;50.922;14.068;2023-06-01T03:13:39;5.07;;;3.10;;
47796;SDS011;33558;50.922;14.068;2023-06-01T03:16:07;6.10;;;3.33;;
47796;SDS011;33558;50.922;14.068;2023-06-01T03:18:38;4.90;;;3.10;;
47796;SDS011;33558;50.922;14.068;2023-06-01T03:21:06;4.17;;;3.17;;
47796;SDS011;33558;50.922;14.068;2023-06-01T03:23:35;5.23;;;3.27;;
47796;SDS011;33558;50.922;14.068;2023-06-01T03:26:11;6.20;;;3.60;;
47796;SDS011;33558;50.922;14.068;2023-06-01T03:28:39;5.07;;;2.90;;
47796;SDS011;33558;50.922;14.068;2023-06-01T03:31:07;7.13;;;3.50;;
47796;SDS011;33558;50.922;14.068;2023-06-01T03:33:37;4.17;;;3.10;;
47796;SDS011;33558;50.922;14.068;2023-06-01T03:36:05;5.10;;;3.00;;
47796;SDS011;33558;50.922;14.068;2023-06-01T03:38:34;4.83;;;2.90;;
47796;SDS011;33558;50.922;14.068;2023-06-01T03:41:02;4.33;;;2.73;;
47796;SDS011;33558;50.922;14.068;2023-06-01T03:43:32;5.90;;;3.80;;
47796;SDS011;33558;50.922;14.068;2023-06-01T03:46:00;5.17;;;3.20;;
47796;SDS011;33558;50.922;14.068;2023-06-01T03:48:28;5.20;;;3.30;;
47796;SDS011;33558;50.922;14.068;2023-06-01T03:50:56;5.00;;;3.90;;
47796;SDS011;33558;50.922;14.068;2023-06-01T03:53:24;4.30;;;2.97;;
47796;SDS011;33558;50.922;14.068;2023-06-01T03:55:53;7.87;;;3.27;;
47796;SDS011;33558;50.922;14.068;2023-06-01T03:58:52;7.10;;;3.20;;
47796;SDS011;33558;50.922;14.068;2023-06-01T04:01:20;4.27;;;3.00;;
47796;SDS011;33558;50.922;14.068;2023-06-01T04:03:50;5.93;;;3.20;;
47796;SDS011;33558;50.922;14.068;2023-06-01T04:06:18;4.63;;;2.63;;
47796;SDS011;33558;50.922;14.068;2023-06-01T04:08:47;5.70;;;3.30;;
47796;SDS011;33558;50.922;14.068;2023-06-01T04:11:16;5.77;;;3.10;;
47796;SDS011;33558;50.922;14.068;2023-06-01T04:13:46;5.00;;;3.17;;
47796;SDS011;33558;50.922;14.068;2023-06-01T04:16:18;3.83;;;3.10;;
47796;SDS011;33558;50.922;14.068;2023-06-01T04:18:47;5.47;;;3.30;;
47796;SDS011;33558;50.922;14.068;2023-06-01T04:21:26;4.93;;;3.40;;
47796;SDS011;33558;50.922;14.068;2023-06-01T04:23:54;4.97;;;3.23;;
47796;SDS011;33558;50.922;14.068;2023-06-01T04:26:22;5.23;;;3.50;;
47796;SDS011;33558;50.922;14.068;2023-06-01T04:28:53;7.27;;;3.23;;
47796;SDS011;33558;50.922;14.068;2023-06-01T04:31:24;4.90;;;3.20;;
47796;SDS011;33558;50.922;14.068;2023-06-01T04:33:52;5.33;;;3.10;;
47796;SDS011;33558;50.922;14.068;2023-06-01T04:36:26;4.87;;;3.03;;
47796;SDS011;33558;50.922;14.068;2023-06-01T04:39:00;4.68;;;3.55;;
47796;SDS011;33558;50.922;14.068;2023-06-01T04:41:31;4.93;;;3.20;;
47796;SDS011;33558;50.922;14.068;2023-06-01T04:44:01;4.53;;;3.00;;
47796;SDS011;33558;50.922;14.068;2023-06-01T04:46:32;3.57;;;3.03;;
47796;SDS011;33558;50.922;14.068;2023-06-01T04:49:00;4.80;;;2.93;;
47796;SDS011;33558;50.922;14.068;2023-06-01T04:51:28;4.63;;;3.13;;
47796;SDS011;33558;50.922;14.068;2023-06-01T04:53:56;6.80;;;2.93;;
47796;SDS011;33558;50.922;14.068;2023-06-01T04:56:24;6.20;;;3.53;;
47796;SDS011;33558;50.922;14.068;2023-06-01T04:58:53;4.83;;;3.10;;
47796;SDS011;33558;50.922;14.068;2023-06-01T05:01:22;9.17;;;3.77;;
47796;SDS011;33558;50.922;14.068;2023-06-01T05:03:52;5.13;;;3.53;;
47796;SDS011;33558;50.922;14.068;2023-06-01T05:06:22;5.53;;;3.07;;
47796;SDS011;33558;50.922;14.068;2023-06-01T05:08:52;9.30;;;2.97;;
47796;SDS011;33558;50.922;14.068;2023-06-01T05:11:19;6.03;;;3.37;;
47796;SDS011;33558;50.922;14.068;2023-06-01T05:13:47;5.47;;;3.50;;
47796;SDS011;33558;50.922;14.068;2023-06-01T05:16:16;5.03;;;3.10;;
47796;SDS011;33558;50.922;14.068;2023-06-01T05:18:43;4.47;;;3.07;;
47796;SDS011;33558;50.922;14.068;2023-06-01T05:21:11;4.17;;;3.30;;
47796;SDS011;33558;50.922;14.068;2023-06-01T05:23:39;5.20;;;2.90;;
47796;SDS011;33558;50.922;14.068;2023-06-01T05:26:06;5.77;;;3.30;;
47796;SDS011;33558;50.922;14.068;2023-06-01T05:28:35;4.00;;;3.10;;
47796;SDS011;33558;50.922;14.068;2023-06-01T05:31:05;6.60;;;2.90;;
47796;SDS011;33558;50.922;14.068;2023-06-01T05:33:44;4.93;;;3.10;;
47796;SDS011;33558;50.922;14.068;2023-06-01T05:36:16;5.30;;;3.20;;
47796;SDS011;33558;50.922;14.068;2023-06-01T05:38:44;6.00;;;3.73;;
47796;SDS011;33558;50.922;14.068;2023-06-01T05:41:12;5.93;;;3.00;;
47796;SDS011;33558;50.922;14.068;2023-06-01T05:43:41;4.50;;;3.00;;
47796;SDS011;33558;50.922;14.068;2023-06-01T05:46:10;6.87;;;3.20;;
47796;SDS011;33558;50.922;14.068;2023-06-01T05:48:38;5.00;;;3.40;;
47796;SDS011;33558;50.922;14.068;2023-06-01T05:51:10;5.57;;;3.20;;
47796;SDS011;33558;50.922;14.068;2023-06-01T05:53:40;7.93;;;3.40;;
47796;SDS011;33558;50.922;14.068;2023-06-01T05:56:09;8.20;;;3.17;;
47796;SDS011;33558;50.922;14.068;2023-06-01T05:58:37;9.82;;;3.70;;
47796;SDS011;33558;50.922;14.068;2023-06-01T06:01:05;6.47;;;3.27;;
47796;SDS011;33558;50.922;14.068;2023-06-01T06:03:33;5.72;;;2.80;;
47796;SDS011;33558;50.922;14.068;2023-06-01T06:06:04;5.18;;;3.08;;
47796;SDS011;33558;50.922;14.068;2023-06-01T06:08:32;4.32;;;3.03;;
47796;SDS011;33558;50.922;14.068;2023-06-01T06:11:01;3.75;;;3.03;;
47796;SDS011;33558;50.922;14.068;2023-06-01T06:13:30;8.55;;;3.38;;
47796;SDS011;33558;50.922;14.068;2023-06-01T06:16:01;5.72;;;2.55;;
47796;SDS011;33558;50.922;14.068;2023-06-01T06:18:29;4.60;;;2.65;;
47796;SDS011;33558;50.922;14.068;2023-06-01T06:20:57;4.20;;;2.85;;
47796;SDS011;33558;50.922;14.068;2023-06-01T06:23:26;4.72;;;3.10;;
47796;SDS011;33558;50.922;14.068;2023-06-01T06:25:56;5.18;;;2.88;;
47796;SDS011;33558;50.922;14.068;2023-06-01T06:28:26;3.15;;;2.58;;
47796;SDS011;33558;50.922;14.068;2023-06-01T06:30:55;3.97;;;2.83;;
47796;SDS011;33558;50.922;14.068;2023-06-01T06:33:23;6.38;;;2.70;;
47796;SDS011;33558;50.922;14.068;2023-06-01T06:35:51;6.40;;;2.50;;
47796;SDS011;33558;50.922;14.068;2023-06-01T06:38:20;4.22;;;2.78;;
47796;SDS011;33558;50.922;14.068;2023-06-01T06:40:48;5.30;;;2.53;;
47796;SDS011;33558;50.922;14.068;2023-06-01T06:43:16;4.85;;;2.63;;
47796;SDS011;33558;50.922;14.068;2023-06-01T06:45:47;7.25;;;3.50;;
47796;SDS011;33558;50.922;14.068;2023-06-01T06:48:17;3.00;;;2.25;;
47796;SDS011;33558;50.922;14.068;2023-06-01T06:50:46;4.25;;;2.47;;
47796;SDS011;33558;50.922;14.068;2023-06-01T06:53:13;4.57;;;3.00;;
47796;SDS011;33558;50.922;14.068;2023-06-01T06:55:44;4.32;;;2.80;;
47796;SDS011;33558;50.922;14.068;2023-06-01T06:58:11;6.03;;;3.40;;
47796;SDS011;33558;50.922;14.068;2023-06-01T07:00:40;4.75;;;2.67;;
47796;SDS011;33558;50.922;14.068;2023-06-01T07:03:10;5.35;;;2.97;;
47796;SDS011;33558;50.922;14.068;2023-06-01T07:05:39;3.67;;;2.80;;
47796;SDS011;33558;50.922;14.068;2023-06-01T07:08:10;6.00;;;3.08;;
47796;SDS011;33558;50.922;14.068;2023-06-01T07:10:39;4.25;;;2.78;;
47796;SDS011;33558;50.922;14.068;2023-06-01T07:13:07;6.38;;;2.80;;
47796;SDS011;33558;50.922;14.068;2023-06-01T07:15:35;8.90;;;3.10;;
47796;SDS011;33558;50.922;14.068;2023-06-01T07:18:03;3.38;;;2.47;;
47796;SDS011;33558;50.922;14.068;2023-06-01T07:20:33;5.38;;;2.50;;
47796;SDS011;33558;50.922;14.068;2023-06-01T07:23:03;7.53;;;2.95;;
47796;SDS011;33558;50.922;14.068;2023-06-01T07:25:57;5.97;;;2.70;;
47796;SDS011;33558;50.922;14.068;2023-06-01T07:28:39;7.68;;;3.22;;
47796;SDS011;33558;50.922;14.068;2023-06-01T07:31:07;8.85;;;2.80;;
47796;SDS011;33558;50.922;14.068;2023-06-01T07:33:33;9.43;;;2.58;;
47796;SDS011;33558;50.922;14.068;2023-06-01T07:36:02;7.00;;;3.13;;
47796;SDS011;33558;50.922;14.068;2023-06-01T07:38:30;7.35;;;2.90;;
47796;SDS011;33558;50.922;14.068;2023-06-01T07:40:58;5.97;;;2.78;;
47796;SDS011;33558;50.922;14.068;2023-06-01T07:43:26;12.35;;;2.85;;
47796;SDS011;33558;50.922;14.068;2023-06-01T07:45:53;6.50;;;2.60;;
47796;SDS011;33558;50.922;14.068;2023-06-01T07:48:23;10.63;;;3.88;;
47796;SDS011;33558;50.922;14.068;2023-06-01T07:50:51;4.53;;;2.58;;
47796;SDS011;33558;50.922;14.068;2023-06-01T07:53:20;5.20;;;2.20;;
47796;SDS011;33558;50.922;14.068;2023-06-01T07:55:48;5.82;;;2.50;;
47796;SDS011;33558;50.922;14.068;2023-06-01T07:58:23;10.90;;;4.18;;
47796;SDS011;33558;50.922;14.068;2023-06-01T08:00:51;6.50;;;3.17;;
47796;SDS011;33558;50.922;14.068;2023-06-01T08:03:31;5.03;;;2.75;;
47796;SDS011;33558;50.922;14.068;2023-06-01T08:06:00;7.97;;;3.15;;
47796;SDS011;33558;50.922;14.068;2023-06-01T08:11:36;9.45;;;3.72;;
47796;SDS011;33558;50.922;14.068;2023-06-01T08:14:05;6.18;;;3.33;;
47796;SDS011;33558;50.922;14.068;2023-06-01T08:16:39;6.68;;;3.60;;
47796;SDS011;33558;50.922;14.068;2023-06-01T08:19:08;7.22;;;3.22;;
47796;SDS011;33558;50.922;14.068;2023-06-01T08:21:36;6.88;;;2.85;;
47796;SDS011;33558;50.922;14.068;2023-06-01T08:24:08;5.30;;;3.00;;
47796;SDS011;33558;50.922;14.068;2023-06-01T08:26:36;7.53;;;3.13;;
47796;SDS011;33558;50.922;14.068;2023-06-01T08:29:03;6.57;;;3.45;;
47796;SDS011;33558;50.922;14.068;2023-06-01T08:31:31;6.40;;;2.95;;
47796;SDS011;33558;50.922;14.068;2023-06-01T08:43:19;11.23;;;3.22;;
47796;SDS011;33558;50.922;14.068;2023-06-01T08:45:53;5.72;;;2.92;;
47796;SDS011;33558;50.922;14.068;2023-06-01T08:48:22;10.38;;;3.47;;
47796;SDS011;33558;50.922;14.068;2023-06-01T08:50:55;10.95;;;3.33;;
47796;SDS011;33558;50.922;14.068;2023-06-01T08:53:23;8.30;;;3.38;;
47796;SDS011;33558;50.922;14.068;2023-06-01T08:55:56;5.57;;;3.15;;
47796;SDS011;33558;50.922;14.068;2023-06-01T08:58:25;7.82;;;3.28;;
47796;SDS011;33558;50.922;14.068;2023-06-01T09:01:15;6.65;;;3.58;;
47796;SDS011;33558;50.922;14.068;2023-06-01T09:03:52;9.43;;;3.10;;
47796;SDS011;33558;50.922;14.068;2023-06-01T09:06:22;7.55;;;2.97;;
47796;SDS011;33558;50.922;14.068;2023-06-01T09:09:02;8.85;;;3.30;;
47796;SDS011;33558;50.922;14.068;2023-06-01T09:11:30;13.23;;;3.22;;
47796;SDS011;33558;50.922;14.068;2023-06-01T09:13:58;5.03;;;2.70;;
47796;SDS011;33558;50.922;14.068;2023-06-01T09:16:34;8.30;;;3.42;;
47796;SDS011;33558;50.922;14.068;2023-06-01T09:19:01;5.05;;;2.22;;
47796;SDS011;33558;50.922;14.068;2023-06-01T09:21:28;7.22;;;2.97;;
47796;SDS011;33558;50.922;14.068;2023-06-01T09:23:55;8.45;;;2.60;;
47796;SDS011;33558;50.922;14.068;2023-06-01T09:26:25;4.60;;;2.40;;
47796;SDS011;33558;50.922;14.068;2023-06-01T09:28:55;4.82;;;2.30;;
47796;SDS011;33558;50.922;14.068;2023-06-01T09:31:36;6.60;;;2.65;;
47796;SDS011;33558;50.922;14.068;2023-06-01T09:34:03;5.53;;;2.58;;
47796;SDS011;33558;50.922;14.068;2023-06-01T09:36:30;6.45;;;2.50;;
47796;SDS011;33558;50.922;14.068;2023-06-01T09:39:01;6.90;;;2.42;;
47796;SDS011;33558;50.922;14.068;2023-06-01T09:41:43;6.10;;;2.55;;
47796;SDS011;33558;50.922;14.068;2023-06-01T09:44:13;9.00;;;3.35;;
47796;SDS011;33558;50.922;14.068;2023-06-01T09:46:46;7.55;;;2.78;;
47796;SDS011;33558;50.922;14.068;2023-06-01T09:49:17;5.72;;;2.67;;
47796;SDS011;33558;50.922;14.068;2023-06-01T09:51:45;6.55;;;3.28;;
47796;SDS011;33558;50.922;14.068;2023-06-01T09:54:21;8.80;;;2.92;;
47796;SDS011;33558;50.922;14.068;2023-06-01T09:56:48;11.55;;;2.83;;
47796;SDS011;33558;50.922;14.068;2023-06-01T09:59:16;5.82;;;2.88;;
47796;SDS011;33558;50.922;14.068;2023-06-01T10:01:43;8.70;;;2.63;;
47796;SDS011;33558;50.922;14.068;2023-06-01T10:04:10;5.50;;;2.65;;
47796;SDS011;33558;50.922;14.068;2023-06-01T10:06:38;4.80;;;2.50;;
47796;SDS011;33558;50.922;14.068;2023-06-01T10:09:06;5.38;;;2.60;;
47796;SDS011;33558;50.922;14.068;2023-06-01T10:11:39;4.03;;;2.50;;
47796;SDS011;33558;50.922;14.068;2023-06-01T10:14:06;5.72;;;2.00;;
47796;SDS011;33558;50.922;14.068;2023-06-01T10:16:34;7.38;;;2.25;;
47796;SDS011;33558;50.922;14.068;2023-06-01T10:19:01;6.10;;;2.20;;
47796;SDS011;33558;50.922;14.068;2023-06-01T10:21:28;6.28;;;2.38;;
47796;SDS011;33558;50.922;14.068;2023-06-01T10:23:55;4.45;;;2.30;;
47796;SDS011;33558;50.922;14.068;2023-06-01T10:26:21;4.32;;;1.83;;
47796;SDS011;33558;50.922;14.068;2023-06-01T10:28:49;5.07;;;2.13;;
47796;SDS011;33558;50.922;14.068;2023-06-01T10:31:32;6.40;;;2.03;;
47796;SDS011;33558;50.922;14.068;2023-06-01T10:34:03;4.18;;;2.13;;
47796;SDS011;33558;50.922;14.068;2023-06-01T10:39:32;4.65;;;1.95;;
47796;SDS011;33558;50.922;14.068;2023-06-01T10:45:03;5.82;;;2.20;;
47796;SDS011;33558;50.922;14.068;2023-06-01T10:47:47;4.45;;;2.00;;
47796;SDS011;33558;50.922;14.068;2023-06-01T10:50:15;8.25;;;1.98;;
47796;SDS011;33558;50.922;14.068;2023-06-01T10:52:42;8.45;;;1.80;;
47796;SDS011;33558;50.922;14.068;2023-06-01T10:55:23;5.63;;;1.90;;
47796;SDS011;33558;50.922;14.068;2023-06-01T10:57:51;8.30;;;2.40;;
47796;SDS011;33558;50.922;14.068;2023-06-01T11:00:21;5.28;;;2.28;;
47796;SDS011;33558;50.922;14.068;2023-06-01T11:02:53;4.38;;;2.17;;
47796;SDS011;33558;50.922;14.068;2023-06-01T11:11:20;6.32;;;2.10;;
47796;SDS011;33558;50.922;14.068;2023-06-01T11:14:06;4.50;;;2.25;;
47796;SDS011;33558;50.922;14.068;2023-06-01T11:16:35;3.70;;;1.92;;
47796;SDS011;33558;50.922;14.068;2023-06-01T11:19:03;5.05;;;2.15;;
47796;SDS011;33558;50.922;14.068;2023-06-01T11:21:35;5.25;;;2.60;;
47796;SDS011;33558;50.922;14.068;2023-06-01T11:24:07;5.43;;;1.88;;
47796;SDS011;33558;50.922;14.068;2023-06-01T11:26:36;7.13;;;3.30;;
47796;SDS011;33558;50.922;14.068;2023-06-01T11:29:05;13.70;;;2.85;;
47796;SDS011;33558;50.922;14.068;2023-06-01T11:31:38;5.90;;;1.65;;
47796;SDS011;33558;50.922;14.068;2023-06-01T11:34:08;4.32;;;2.08;;
47796;SDS011;33558;50.922;14.068;2023-06-01T11:36:37;7.45;;;2.30;;
47796;SDS011;33558;50.922;14.068;2023-06-01T11:39:05;4.10;;;2.00;;
47796;SDS011;33558;50.922;14.068;2023-06-01T11:41:36;6.47;;;2.25;;
47796;SDS011;33558;50.922;14.068;2023-06-01T11:44:03;11.07;;;2.78;;
47796;SDS011;33558;50.922;14.068;2023-06-01T11:46:32;5.85;;;2.05;;
47796;SDS011;33558;50.922;14.068;2023-06-01T11:48:59;5.10;;;2.20;;
47796;SDS011;33558;50.922;14.068;2023-06-01T11:51:29;4.45;;;2.30;;
47796;SDS011;33558;50.922;14.068;2023-06-01T11:53:56;5.70;;;2.60;;
47796;SDS011;33558;50.922;14.068;2023-06-01T11:56:30;8.45;;;2.97;;
47796;SDS011;33558;50.922;14.068;2023-06-01T11:58:57;6.40;;;2.55;;
47796;SDS011;33558;50.922;14.068;2023-06-01T12:01:25;6.55;;;2.63;;
47796;SDS011;33558;50.922;14.068;2023-06-01T12:03:51;4.70;;;2.50;;
47796;SDS011;33558;50.922;14.068;2023-06-01T12:06:19;7.03;;;2.50;;
47796;SDS011;33558;50.922;14.068;2023-06-01T12:08:48;4.30;;;2.20;;
47796;SDS011;33558;50.922;14.068;2023-06-01T12:11:17;5.55;;;1.98;;
47796;SDS011;33558;50.922;14.068;2023-06-01T12:13:46;3.30;;;1.90;;
47796;SDS011;33558;50.922;14.068;2023-06-01T12:16:14;3.40;;;1.75;;
47796;SDS011;33558;50.922;14.068;2023-06-01T12:18:41;4.97;;;2.40;;
47796;SDS011;33558;50.922;14.068;2023-06-01T12:21:09;3.70;;;1.90;;
47796;SDS011;33558;50.922;14.068;2023-06-01T12:23:36;5.40;;;2.22;;
47796;SDS011;33558;50.922;14.068;2023-06-01T12:26:04;5.07;;;2.30;;
47796;SDS011;33558;50.922;14.068;2023-06-01T12:31:14;4.05;;;2.28;;
47796;SDS011;33558;50.922;14.068;2023-06-01T12:33:43;3.67;;;2.25;;
47796;SDS011;33558;50.922;14.068;2023-06-01T12:36:10;4.45;;;2.28;;
47796;SDS011;33558;50.922;14.068;2023-06-01T12:38:49;3.55;;;1.80;;
47796;SDS011;33558;50.922;14.068;2023-06-01T12:41:18;4.15;;;2.20;;
47796;SDS011;33558;50.922;14.068;2023-06-01T12:43:47;5.82;;;2.30;;
47796;SDS011;33558;50.922;14.068;2023-06-01T12:46:17;4.72;;;2.42;;
47796;SDS011;33558;50.922;14.068;2023-06-01T12:48:45;6.35;;;2.22;;
47796;SDS011;33558;50.922;14.068;2023-06-01T12:51:13;2.97;;;1.90;;
47796;SDS011;33558;50.922;14.068;2023-06-01T12:53:40;7.10;;;2.10;;
47796;SDS011;33558;50.922;14.068;2023-06-01T12:56:07;4.65;;;2.13;;
47796;SDS011;33558;50.922;14.068;2023-06-01T12:58:36;4.40;;;2.08;;
47796;SDS011;33558;50.922;14.068;2023-06-01T13:01:03;4.72;;;2.30;;
47796;SDS011;33558;50.922;14.068;2023-06-01T13:03:30;10.15;;;2.80;;
47796;SDS011;33558;50.922;14.068;2023-06-01T13:05:56;5.35;;;2.90;;
47796;SDS011;33558;50.922;14.068;2023-06-01T13:08:23;6.35;;;2.72;;
47796;SDS011;33558;50.922;14.068;2023-06-01T13:10:50;5.53;;;2.25;;
47796;SDS011;33558;50.922;14.068;2023-06-01T13:13:16;4.93;;;2.55;;
47796;SDS011;33558;50.922;14.068;2023-06-01T13:15:45;4.43;;;2.38;;
47796;SDS011;33558;50.922;14.068;2023-06-01T13:18:12;3.45;;;2.17;;
47796;SDS011;33558;50.922;14.068;2023-06-01T13:20:38;4.72;;;2.67;;
47796;SDS011;33558;50.922;14.068;2023-06-01T13:23:05;4.78;;;2.53;;
47796;SDS011;33558;50.922;14.068;2023-06-01T13:25:32;5.10;;;2.78;;
47796;SDS011;33558;50.922;14.068;2023-06-01T13:27:59;3.92;;;2.35;;
47796;SDS011;33558;50.922;14.068;2023-06-01T13:30:26;5.15;;;2.67;;
47796;SDS011;33558;50.922;14.068;2023-06-01T13:32:55;4.20;;;2.63;;
47796;SDS011;33558;50.922;14.068;2023-06-01T13:35:22;5.00;;;2.60;;
47796;SDS011;33558;50.922;14.068;2023-06-01T13:37:49;5.55;;;2.58;;
47796;SDS011;33558;50.922;14.068;2023-06-01T13:40:15;5.70;;;2.75;;
47796;SDS011;33558;50.922;14.068;2023-06-01T13:42:43;8.10;;;2.85;;
47796;SDS011;33558;50.922;14.068;2023-06-01T13:45:34;4.32;;;2.80;;
47796;SDS011;33558;50.922;14.068;2023-06-01T13:48:02;6.93;;;3.17;;
47796;SDS011;33558;50.922;14.068;2023-06-01T13:50:29;6.40;;;3.33;;
47796;SDS011;33558;50.922;14.068;2023-06-01T13:52:56;4.82;;;2.78;;
47796;SDS011;33558;50.922;14.068;2023-06-01T13:55:22;6.43;;;3.40;;
47796;SDS011;33558;50.922;14.068;2023-06-01T13:57:50;6.18;;;3.40;;
47796;SDS011;33558;50.922;14.068;2023-06-01T14:00:21;5.10;;;3.38;;
47796;SDS011;33558;50.922;14.068;2023-06-01T14:02:48;7.78;;;3.35;;
47796;SDS011;33558;50.922;14.068;2023-06-01T14:05:16;7.63;;;3.22;;
47796;SDS011;33558;50.922;14.068;2023-06-01T14:07:43;5.03;;;3.47;;
47796;SDS011;33558;50.922;14.068;2023-06-01T14:10:11;7.60;;;3.10;;
47796;SDS011;33558;50.922;14.068;2023-06-01T14:12:39;8.27;;;3.10;;
47796;SDS011;33558;50.922;14.068;2023-06-01T14:15:31;9.02;;;3.78;;
47796;SDS011;33558;50.922;14.068;2023-06-01T14:17:58;5.55;;;3.22;;
47796;SDS011;33558;50.922;14.068;2023-06-01T14:20:26;6.10;;;3.35;;
47796;SDS011;33558;50.922;14.068;2023-06-01T14:22:53;12.10;;;3.90;;
47796;SDS011;33558;50.922;14.068;2023-06-01T14:25:20;11.15;;;4.03;;
47796;SDS011;33558;50.922;14.068;2023-06-01T14:27:46;5.82;;;3.80;;
47796;SDS011;33558;50.922;14.068;2023-06-01T14:30:39;6.25;;;3.50;;
47796;SDS011;33558;50.922;14.068;2023-06-01T14:33:05;12.18;;;3.83;;
47796;SDS011;33558;50.922;14.068;2023-06-01T14:35:33;9.40;;;3.60;;
47796;SDS011;33558;50.922;14.068;2023-06-01T14:38:00;5.72;;;3.70;;
47796;SDS011;33558;50.922;14.068;2023-06-01T14:40:27;7.57;;;3.35;;
47796;SDS011;33558;50.922;14.068;2023-06-01T14:42:53;9.05;;;4.18;;
47796;SDS011;33558;50.922;14.068;2023-06-01T14:45:22;5.88;;;3.45;;
47796;SDS011;33558;50.922;14.068;2023-06-01T14:47:48;8.27;;;4.32;;
47796;SDS011;33558;50.922;14.068;2023-06-01T14:50:15;5.70;;;4.22;;
47796;SDS011;33558;50.922;14.068;2023-06-01T14:52:43;8.60;;;3.80;;
47796;SDS011;33558;50.922;14.068;2023-06-01T14:55:10;14.80;;;5.53;;
47796;SDS011;33558;50.922;14.068;2023-06-01T14:57:36;9.10;;;4.50;;
47796;SDS011;33558;50.922;14.068;2023-06-01T15:00:03;7.93;;;4.43;;
47796;SDS011;33558;50.922;14.068;2023-06-01T15:02:32;6.85;;;4.75;;
47796;SDS011;33558;50.922;14.068;2023-06-01T15:04:59;10.57;;;4.75;;
47796;SDS011;33558;50.922;14.068;2023-06-01T15:07:25;7.68;;;4.47;;
47796;SDS011;33558;50.922;14.068;2023-06-01T15:09:53;11.10;;;4.80;;
47796;SDS011;33558;50.922;14.068;2023-06-01T15:12:20;9.43;;;5.40;;
47796;SDS011;33558;50.922;14.068;2023-06-01T15:14:47;5.97;;;4.50;;